Time;durP1;ratioP1;P1;durP2;ratioP2;P2;SDS_P1;SDS_P2;PMS_P1;PMS_P2;Temp;Humidity;BMP_temperature;BMP_pressure;BME280_temperature;BME280_humidity;BME280_pressure;Samples;Min_cycle;Max_cycle;Signal;HPM_P1;HPM_P2
2022/12/21 00:01:45;;;;;;;3.42;3.05;;;;;;;;;;5069930;28;20197;-87
2022/12/21 00:04:14;;;;;;;4.40;4.00;;;;;;;;;;5054843;28;20720;-87
2022/12/21 00:06:42;;;;;;;3.10;2.90;;;;;;;;;;5072558;28;20201;-87
2022/12/21 00:09:14;;;;;;;3.78;3.47;;;;;;;;;;5074959;28;20280;-87
2022/12/21 00:11:42;;;;;;;3.60;3.30;;;;;;;;;;5066041;28;20276;-87
2022/12/21 00:14:10;;;;;;;3.80;3.50;;;;;;;;;;5060767;28;20233;-87
2022/12/21 00:16:41;;;;;;;3.05;2.80;;;;;;;;;;5072392;28;20667;-87
2022/12/21 00:19:09;;;;;;;3.33;3.00;;;;;;;;;;5062768;28;20208;-87
2022/12/21 00:21:38;;;;;;;2.97;2.78;;;;;;;;;;5074081;28;20201;-87
2022/12/21 00:24:07;;;;;;;2.72;2.53;;;;;;;;;;5070218;28;20629;-87
2022/12/21 00:26:37;;;;;;;2.97;2.78;;;;;;;;;;5070838;28;20197;-87
2022/12/21 00:29:05;;;;;;;3.33;3.03;;;;;;;;;;5071860;28;20208;-87
2022/12/21 00:31:35;;;;;;;3.35;3.05;;;;;;;;;;5069795;28;20203;-87
2022/12/21 00:34:03;;;;;;;3.28;3.00;;;;;;;;;;5065963;28;20311;-87
2022/12/21 00:36:31;;;;;;;3.63;2.90;;;;;;;;;;5074985;28;20220;-87
2022/12/21 00:39:01;;;;;;;3.65;3.40;;;;;;;;;;5065023;28;20207;-87
2022/12/21 00:41:29;;;;;;;3.40;3.10;;;;;;;;;;5063068;28;20750;-88
2022/12/21 00:43:57;;;;;;;4.10;2.88;;;;;;;;;;5064245;28;20231;-87
2022/12/21 00:46:27;;;;;;;2.72;2.53;;;;;;;;;;5068633;28;20198;-87
2022/12/21 00:48:57;;;;;;;2.78;2.58;;;;;;;;;;5059608;28;20193;-87
2022/12/21 00:51:26;;;;;;;2.30;2.10;;;;;;;;;;5061031;28;20569;-88
2022/12/21 00:53:54;;;;;;;2.38;2.17;;;;;;;;;;5074833;28;20237;-87
2022/12/21 00:56:23;;;;;;;2.83;2.63;;;;;;;;;;5074092;28;20201;-88
2022/12/21 00:58:51;;;;;;;3.05;2.85;;;;;;;;;;5072494;28;20219;-88
2022/12/21 01:01:21;;;;;;;2.58;2.38;;;;;;;;;;5065819;28;20198;-88
2022/12/21 01:03:49;;;;;;;1.75;1.65;;;;;;;;;;5059774;28;20205;-88
2022/12/21 01:06:18;;;;;;;1.90;1.80;;;;;;;;;;5074729;28;20649;-88
2022/12/21 01:08:46;;;;;;;2.15;2.03;;;;;;;;;;5064299;28;20288;-88
2022/12/21 01:11:15;;;;;;;2.08;1.95;;;;;;;;;;5060749;28;20190;-88
2022/12/21 01:13:46;;;;;;;2.25;2.05;;;;;;;;;;5070440;28;20292;-89
2022/12/21 01:16:15;;;;;;;1.85;1.75;;;;;;;;;;5067119;28;20197;-88
2022/12/21 01:18:43;;;;;;;2.55;2.35;;;;;;;;;;5070655;28;20646;-89
2022/12/21 01:21:16;;;;;;;1.63;1.52;;;;;;;;;;5067612;28;20220;-88
2022/12/21 01:23:44;;;;;;;2.40;2.20;;;;;;;;;;5064868;28;20548;-89
2022/12/21 01:26:12;;;;;;;2.05;1.95;;;;;;;;;;5072002;28;20203;-88
2022/12/21 01:28:39;;;;;;;2.40;2.30;;;;;;;;;;5073938;28;20209;-89
2022/12/21 01:31:08;;;;;;;3.58;3.28;;;;;;;;;;5073607;28;20289;-88
2022/12/21 01:33:36;;;;;;;3.00;2.80;;;;;;;;;;5069262;28;20308;-89
2022/12/21 01:36:08;;;;;;;2.58;2.45;;;;;;;;;;5073932;28;20313;-89
2022/12/21 01:38:38;;;;;;;2.38;2.28;;;;;;;;;;5073536;28;20613;-89
2022/12/21 01:41:05;;;;;;;2.42;2.22;;;;;;;;;;5057651;28;20577;-89
2022/12/21 01:43:49;;;;;;;2.70;2.50;;;;;;;;;;5065987;28;20289;-89
2022/12/21 01:46:26;;;;;;;2.38;2.20;;;;;;;;;;5059074;28;20280;-89
2022/12/21 01:49:03;;;;;;;2.83;2.63;;;;;;;;;;5053493;28;20649;-88
2022/12/21 01:51:32;;;;;;;2.92;2.72;;;;;;;;;;5063945;28;20195;-88
2022/12/21 01:54:02;;;;;;;2.63;2.42;;;;;;;;;;5073150;28;20221;-89
2022/12/21 01:56:33;;;;;;;2.63;2.42;;;;;;;;;;5073952;28;20181;-89
2022/12/21 01:59:06;;;;;;;2.97;2.78;;;;;;;;;;5073175;28;20572;-88
2022/12/21 02:01:35;;;;;;;2.55;2.45;;;;;;;;;;5065299;28;20185;-88
2022/12/21 02:04:03;;;;;;;2.97;2.78;;;;;;;;;;5060396;28;20307;-89
2022/12/21 02:06:34;;;;;;;2.67;2.47;;;;;;;;;;5069641;28;20705;-89
2022/12/21 02:09:03;;;;;;;2.78;2.58;;;;;;;;;;5073131;28;20283;-89
2022/12/21 02:11:31;;;;;;;2.80;2.60;;;;;;;;;;5072517;28;20193;-88
2022/12/21 02:13:58;;;;;;;2.80;2.38;;;;;;;;;;5066075;28;20735;-88
2022/12/21 02:16:31;;;;;;;2.30;2.20;;;;;;;;;;5060606;28;20600;-88
2022/12/21 02:19:43;;;;;;;2.40;2.30;;;;;;;;;;5071844;28;20676;-89
2022/12/21 02:22:17;;;;;;;2.53;2.33;;;;;;;;;;5072860;28;20276;-89
2022/12/21 02:25:41;;;;;;;2.67;2.50;;;;;;;;;;5064718;28;20221;-89
2022/12/21 02:28:39;;;;;;;3.08;2.88;;;;;;;;;;5044367;28;20207;-89
2022/12/21 02:31:20;;;;;;;2.65;2.45;;;;;;;;;;5064474;28;20182;-88
2022/12/21 02:34:02;;;;;;;3.28;3.08;;;;;;;;;;5073135;28;20243;-89
2022/12/21 02:36:35;;;;;;;3.38;3.17;;;;;;;;;;5072263;28;20661;-90
2022/12/21 02:39:09;;;;;;;3.38;3.10;;;;;;;;;;5052999;28;20280;-89
2022/12/21 02:41:49;;;;;;;2.22;2.08;;;;;;;;;;5058776;28;20203;-89
2022/12/21 02:44:40;;;;;;;1.95;1.85;;;;;;;;;;5070764;28;20223;-89
2022/12/21 02:47:12;;;;;;;2.25;2.15;;;;;;;;;;5065191;28;20193;-89
2022/12/21 02:49:47;;;;;;;2.03;1.90;;;;;;;;;;5072367;28;20204;-88
2022/12/21 02:52:18;;;;;;;2.65;2.53;;;;;;;;;;5066338;28;20275;-89
2022/12/21 02:54:46;;;;;;;2.38;2.28;;;;;;;;;;5069313;28;20224;-89
2022/12/21 02:57:14;;;;;;;2.40;2.30;;;;;;;;;;5067235;28;20285;-89
2022/12/21 02:59:45;;;;;;;2.88;2.67;;;;;;;;;;5068526;28;20645;-89
2022/12/21 03:02:38;;;;;;;3.00;2.78;;;;;;;;;;5067154;28;20215;-88
2022/12/21 03:05:36;;;;;;;2.28;2.17;;;;;;;;;;5067658;28;20714;-88
2022/12/21 03:08:14;;;;;;;2.75;2.55;;;;;;;;;;5053503;28;20733;-88
2022/12/21 03:10:53;;;;;;;3.05;2.45;;;;;;;;;;5069812;28;20182;-89
2022/12/21 03:13:28;;;;;;;2.40;2.28;;;;;;;;;;5064252;28;20657;-89
2022/12/21 03:16:00;;;;;;;2.00;1.90;;;;;;;;;;5069158;28;20224;-88
2022/12/21 03:18:34;;;;;;;2.00;1.90;;;;;;;;;;5063116;28;20193;-88
2022/12/21 03:21:08;;;;;;;2.72;2.53;;;;;;;;;;5062650;28;20209;-89
2022/12/21 03:23:39;;;;;;;2.13;2.00;;;;;;;;;;5060150;28;20201;-88
2022/12/21 03:26:10;;;;;;;2.35;2.15;;;;;;;;;;5067034;28;20196;-89
2022/12/21 03:28:40;;;;;;;2.05;1.90;;;;;;;;;;5062168;28;20573;-88
2022/12/21 03:31:13;;;;;;;2.05;1.95;;;;;;;;;;5063908;28;20565;-89
2022/12/21 03:33:52;;;;;;;1.95;1.85;;;;;;;;;;5060394;28;20564;-89
2022/12/21 03:36:24;;;;;;;2.33;2.22;;;;;;;;;;5062288;28;20310;-88
2022/12/21 03:38:54;;;;;;;2.28;2.08;;;;;;;;;;5072157;28;20205;-89
2022/12/21 03:41:26;;;;;;;2.08;1.98;;;;;;;;;;5072016;28;20292;-89
2022/12/21 03:43:55;;;;;;;2.20;2.10;;;;;;;;;;5071909;28;20308;-89
2022/12/21 03:46:25;;;;;;;1.73;1.63;;;;;;;;;;5057250;28;20281;-89
2022/12/21 03:48:58;;;;;;;2.35;2.17;;;;;;;;;;5052001;28;20201;-89
2022/12/21 03:51:32;;;;;;;2.60;2.40;;;;;;;;;;5061485;28;20202;-89
2022/12/21 03:54:07;;;;;;;2.30;2.20;;;;;;;;;;5067238;28;20590;-89
2022/12/21 03:56:36;;;;;;;2.25;2.05;;;;;;;;;;5071935;28;20668;-89
2022/12/21 03:59:04;;;;;;;1.98;1.88;;;;;;;;;;5071927;28;20194;-89
2022/12/21 04:01:56;;;;;;;2.10;2.00;;;;;;;;;;5063107;28;20224;-90
2022/12/21 04:04:30;;;;;;;2.17;2.05;;;;;;;;;;5065529;28;20235;-89
2022/12/21 04:07:01;;;;;;;2.47;2.30;;;;;;;;;;5060829;28;20565;-89
2022/12/21 04:09:28;;;;;;;2.00;1.90;;;;;;;;;;5068701;28;20205;-89
2022/12/21 04:14:41;;;;;;;1.98;1.85;;;;;;;;;;5070631;28;20232;-89
2022/12/21 04:17:09;;;;;;;1.85;1.73;;;;;;;;;;5070581;28;20310;-89
2022/12/21 04:28:09;;;;;;;1.83;1.73;;;;;;;;;;5073349;28;20226;-91
2022/12/21 04:30:39;;;;;;;1.83;1.73;;;;;;;;;;5065701;28;20212;-89
2022/12/21 04:33:08;;;;;;;2.22;2.13;;;;;;;;;;5075061;28;20193;-88
2022/12/21 04:37:30;;;;;;;2.17;2.08;;;;;;;;;;5075128;28;20727;-88
2022/12/21 04:38:24;;;;;;;2.08;1.98;;;;;;;;;;5074539;28;20224;-89
2022/12/21 04:40:53;;;;;;;1.90;1.80;;;;;;;;;;5073881;28;20219;-88
2022/12/21 04:43:21;;;;;;;1.60;1.50;;;;;;;;;;5065431;28;20200;-88
2022/12/21 04:45:49;;;;;;;1.92;1.83;;;;;;;;;;5074635;28;20213;-88
2022/12/21 04:48:16;;;;;;;1.38;1.30;;;;;;;;;;5074795;28;20189;-89
2022/12/21 04:50:45;;;;;;;3.08;2.22;;;;;;;;;;5074460;28;20645;-88
2022/12/21 04:53:13;;;;;;;1.63;1.52;;;;;;;;;;5074240;28;20200;-88
2022/12/21 04:55:40;;;;;;;1.63;1.52;;;;;;;;;;5074652;28;20316;-89
2022/12/21 04:58:08;;;;;;;1.42;1.33;;;;;;;;;;5073826;28;20220;-89
2022/12/21 05:00:35;;;;;;;1.73;1.63;;;;;;;;;;5066279;28;20289;-88
2022/12/21 05:03:03;;;;;;;1.40;1.30;;;;;;;;;;5072480;28;20573;-89
2022/12/21 05:05:31;;;;;;;2.38;2.22;;;;;;;;;;5074594;28;20247;-89
2022/12/21 05:08:00;;;;;;;3.42;3.03;;;;;;;;;;5074052;28;20281;-89
2022/12/21 05:10:27;;;;;;;6.47;5.97;;;;;;;;;;5067752;28;20201;-89
2022/12/21 05:12:55;;;;;;;5.75;5.25;;;;;;;;;;5074084;28;20197;-88
2022/12/21 05:15:22;;;;;;;5.70;5.10;;;;;;;;;;5074214;28;20271;-89
2022/12/21 05:17:50;;;;;;;5.78;5.28;;;;;;;;;;5055958;28;20684;-89
2022/12/21 05:20:17;;;;;;;4.07;3.78;;;;;;;;;;5057380;28;20220;-88
2022/12/21 05:22:46;;;;;;;3.80;3.45;;;;;;;;;;5074422;28;20208;-88
2022/12/21 05:25:15;;;;;;;2.80;2.60;;;;;;;;;;5066146;28;20240;-88
2022/12/21 05:27:42;;;;;;;2.03;1.85;;;;;;;;;;5065727;28;20288;-89
2022/12/21 05:30:11;;;;;;;2.50;2.30;;;;;;;;;;5073837;28;20251;-88
2022/12/21 05:32:39;;;;;;;1.88;1.77;;;;;;;;;;5074142;28;20201;-88
2022/12/21 05:35:08;;;;;;;1.92;1.83;;;;;;;;;;5073574;28;20231;-88
2022/12/21 05:37:36;;;;;;;2.00;1.90;;;;;;;;;;5073979;28;20228;-89
2022/12/21 05:40:03;;;;;;;2.17;2.08;;;;;;;;;;5073599;28;20288;-88
2022/12/21 05:42:32;;;;;;;2.00;1.90;;;;;;;;;;5077506;28;20205;-91
2022/12/21 05:45:00;;;;;;;2.53;2.33;;;;;;;;;;5075368;28;20749;-90
2022/12/21 05:47:28;;;;;;;2.35;2.25;;;;;;;;;;5067026;28;20201;-91
2022/12/21 05:49:55;;;;;;;2.15;1.95;;;;;;;;;;5074434;28;20225;-90
2022/12/21 05:52:23;;;;;;;1.90;1.80;;;;;;;;;;5074513;28;20225;-90
2022/12/21 05:54:50;;;;;;;2.45;2.25;;;;;;;;;;5058852;28;20712;-90
2022/12/21 06:00:11;;;;;;;2.50;2.30;;;;;;;;;;5061967;28;20239;-90
2022/12/21 06:02:38;;;;;;;2.50;2.30;;;;;;;;;;5062561;28;20201;-91
2022/12/21 06:05:07;;;;;;;3.08;2.88;;;;;;;;;;5068425;28;20308;-90
2022/12/21 06:07:37;;;;;;;2.00;1.90;;;;;;;;;;5067961;28;20569;-90
2022/12/21 06:10:06;;;;;;;2.17;2.05;;;;;;;;;;5070341;28;20197;-90
2022/12/21 06:12:35;;;;;;;2.88;2.58;;;;;;;;;;5073857;28;20220;-91
2022/12/21 06:15:03;;;;;;;2.72;2.53;;;;;;;;;;5073259;28;20244;-90
2022/12/21 06:17:32;;;;;;;2.63;2.42;;;;;;;;;;5064844;28;20227;-90
2022/12/21 06:20:00;;;;;;;2.83;2.63;;;;;;;;;;5073956;28;20205;-91
2022/12/21 06:22:28;;;;;;;2.50;2.30;;;;;;;;;;5069528;28;20221;-90
2022/12/21 06:24:56;;;;;;;3.00;2.80;;;;;;;;;;5063132;28;20240;-90
2022/12/21 06:27:24;;;;;;;2.95;2.75;;;;;;;;;;5073615;28;20903;-90
2022/12/21 06:29:51;;;;;;;2.88;2.67;;;;;;;;;;5072673;28;20221;-89
2022/12/21 06:32:19;;;;;;;1.88;1.77;;;;;;;;;;5066512;28;20189;-90
2022/12/21 06:34:48;;;;;;;2.47;2.28;;;;;;;;;;5065425;28;20264;-90
2022/12/21 06:37:15;;;;;;;2.25;2.08;;;;;;;;;;5063041;28;20307;-91
2022/12/21 06:39:43;;;;;;;2.50;2.30;;;;;;;;;;5065255;28;20281;-90
2022/12/21 06:42:10;;;;;;;1.92;1.83;;;;;;;;;;5073919;28;20204;-90
2022/12/21 06:44:38;;;;;;;3.05;2.85;;;;;;;;;;5062093;28;20708;-91
2022/12/21 06:47:06;;;;;;;3.42;3.17;;;;;;;;;;5072893;28;20283;-91
2022/12/21 06:49:33;;;;;;;3.40;3.10;;;;;;;;;;5073864;28;20232;-91
2022/12/21 06:52:02;;;;;;;2.67;2.47;;;;;;;;;;5076133;28;20284;-91
2022/12/21 06:54:30;;;;;;;2.72;2.53;;;;;;;;;;5075064;28;20713;-91
2022/12/21 06:56:57;;;;;;;3.25;3.05;;;;;;;;;;5070493;28;20610;-91
2022/12/21 06:59:25;;;;;;;2.05;1.95;;;;;;;;;;5075069;28;20292;-90
2022/12/21 07:01:52;;;;;;;2.40;2.20;;;;;;;;;;5072105;28;20205;-90
2022/12/21 07:04:20;;;;;;;2.20;2.10;;;;;;;;;;5073669;28;20304;-89
2022/12/21 07:06:48;;;;;;;1.73;1.63;;;;;;;;;;5072916;28;20201;-90
2022/12/21 07:09:17;;;;;;;2.20;2.10;;;;;;;;;;5073334;28;20288;-90
2022/12/21 07:11:46;;;;;;;2.85;2.65;;;;;;;;;;5067138;28;20284;-90
2022/12/21 07:14:14;;;;;;;5.15;4.63;;;;;;;;;;5056475;28;20226;-91
2022/12/21 07:16:41;;;;;;;6.65;6.05;;;;;;;;;;5073969;28;20211;-91
2022/12/21 07:19:09;;;;;;;8.90;8.00;;;;;;;;;;5062168;28;20689;-89
2022/12/21 07:21:36;;;;;;;7.45;6.75;;;;;;;;;;5073260;28;20291;-89
2022/12/21 07:24:05;;;;;;;8.20;7.38;;;;;;;;;;5073432;28;20217;-91
2022/12/21 07:26:33;;;;;;;7.07;6.45;;;;;;;;;;5074182;28;20196;-90
2022/12/21 07:29:01;;;;;;;5.63;5.13;;;;;;;;;;5069274;28;20288;-90
2022/12/21 07:31:29;;;;;;;7.35;6.65;;;;;;;;;;5072428;28;20622;-89
2022/12/21 07:33:56;;;;;;;5.20;4.80;;;;;;;;;;5071838;28;21689;-89
2022/12/21 07:36:24;;;;;;;5.40;4.90;;;;;;;;;;5070505;28;20215;-89
2022/12/21 07:38:52;;;;;;;5.03;4.63;;;;;;;;;;5064354;28;20220;-90
2022/12/21 07:41:19;;;;;;;6.60;6.00;;;;;;;;;;5065451;28;20247;-89
2022/12/21 07:43:49;;;;;;;7.10;6.43;;;;;;;;;;5074707;28;20208;-90
2022/12/21 07:46:17;;;;;;;7.40;6.65;;;;;;;;;;5075546;28;20304;-89
2022/12/21 07:48:45;;;;;;;7.45;6.80;;;;;;;;;;5075907;28;20204;-90
2022/12/21 07:51:12;;;;;;;7.60;6.85;;;;;;;;;;5076416;28;20288;-89
2022/12/21 07:53:40;;;;;;;6.93;6.32;;;;;;;;;;5075920;28;20291;-90
2022/12/21 07:56:13;;;;;;;5.40;4.90;;;;;;;;;;5066708;28;20209;-90
2022/12/21 07:58:41;;;;;;;9.45;8.15;;;;;;;;;;5064146;28;20225;-89
2022/12/21 08:01:19;;;;;;;10.32;9.32;;;;;;;;;;5062205;28;20202;-89
2022/12/21 08:03:48;;;;;;;9.27;8.38;;;;;;;;;;5071872;28;20287;-89
2022/12/21 08:06:16;;;;;;;8.10;7.25;;;;;;;;;;5076151;28;20193;-90
2022/12/21 08:08:43;;;;;;;10.38;9.13;;;;;;;;;;5075501;28;20205;-89
2022/12/21 08:11:14;;;;;;;7.30;6.70;;;;;;;;;;5071010;28;20568;-90
2022/12/21 08:13:42;;;;;;;7.22;6.53;;;;;;;;;;5068032;28;20240;-90
2022/12/21 08:16:13;;;;;;;5.53;5.00;;;;;;;;;;5074028;28;20189;-89
2022/12/21 08:18:42;;;;;;;7.18;6.55;;;;;;;;;;5071660;28;20332;-89
2022/12/21 08:21:10;;;;;;;7.45;6.60;;;;;;;;;;5066917;28;20684;-89
2022/12/21 08:23:38;;;;;;;8.48;7.63;;;;;;;;;;5064222;28;20236;-90
2022/12/21 08:26:09;;;;;;;11.63;9.93;;;;;;;;;;5069154;28;20204;-90
2022/12/21 08:28:37;;;;;;;8.85;8.05;;;;;;;;;;5068272;28;20598;-87
2022/12/21 08:31:07;;;;;;;7.07;5.85;;;;;;;;;;5076644;28;20220;-90
2022/12/21 08:33:35;;;;;;;7.43;6.65;;;;;;;;;;5074265;28;20197;-87
2022/12/21 08:36:08;;;;;;;9.63;8.65;;;;;;;;;;5074177;28;20323;-90
2022/12/21 08:38:36;;;;;;;10.70;9.60;;;;;;;;;;5061664;28;20217;-89
2022/12/21 08:41:08;;;;;;;7.25;6.38;;;;;;;;;;5068102;28;20196;-89
2022/12/21 08:43:37;;;;;;;7.00;6.32;;;;;;;;;;5071503;28;20655;-90
2022/12/21 08:46:06;;;;;;;9.30;8.40;;;;;;;;;;5061124;28;20547;-90
2022/12/21 08:48:34;;;;;;;9.60;8.60;;;;;;;;;;5063759;28;20200;-89
2022/12/21 08:51:01;;;;;;;10.65;9.52;;;;;;;;;;5055102;28;20204;-90
2022/12/21 08:53:30;;;;;;;8.18;7.38;;;;;;;;;;5058799;28;20197;-89
2022/12/21 08:55:58;;;;;;;7.05;6.35;;;;;;;;;;5072965;28;20311;-89
2022/12/21 08:58:26;;;;;;;5.90;5.40;;;;;;;;;;5067716;28;20190;-89
2022/12/21 09:01:00;;;;;;;5.75;5.03;;;;;;;;;;5073341;28;20593;-89
2022/12/21 09:03:28;;;;;;;6.97;5.43;;;;;;;;;;5074877;28;20597;-90
2022/12/21 09:05:57;;;;;;;5.38;4.88;;;;;;;;;;5074932;28;20224;-88
2022/12/21 09:08:25;;;;;;;6.80;6.05;;;;;;;;;;5068771;28;20212;-88
2022/12/21 09:11:02;;;;;;;5.70;4.88;;;;;;;;;;5065106;28;20579;-89
2022/12/21 09:13:30;;;;;;;5.32;4.82;;;;;;;;;;5076234;28;20203;-86
2022/12/21 09:15:57;;;;;;;3.83;3.53;;;;;;;;;;5063930;28;20300;-88
2022/12/21 09:18:25;;;;;;;4.22;3.83;;;;;;;;;;5072063;28;20284;-86
2022/12/21 09:20:53;;;;;;;3.00;2.78;;;;;;;;;;5064958;28;20198;-87
2022/12/21 09:23:21;;;;;;;2.00;1.90;;;;;;;;;;5064758;28;20193;-85
2022/12/21 09:25:49;;;;;;;1.50;1.40;;;;;;;;;;5064051;28;20225;-86
2022/12/21 09:28:17;;;;;;;1.65;1.55;;;;;;;;;;5070025;28;20193;-86
2022/12/21 09:30:45;;;;;;;1.40;1.30;;;;;;;;;;5072345;28;20211;-86
2022/12/21 09:33:13;;;;;;;1.30;1.30;;;;;;;;;;5063999;28;20284;-90
2022/12/21 09:35:40;;;;;;;1.52;1.42;;;;;;;;;;5074044;28;20657;-90
2022/12/21 09:38:08;;;;;;;1.50;1.40;;;;;;;;;;5073445;28;20281;-90
2022/12/21 09:40:36;;;;;;;1.45;1.35;;;;;;;;;;5073742;28;20666;-90
2022/12/21 09:43:10;;;;;;;1.42;1.33;;;;;;;;;;5071280;28;20661;-90
2022/12/21 09:45:48;;;;;;;1.38;1.27;;;;;;;;;;5071630;28;20590;-92
2022/12/21 09:48:19;;;;;;;1.20;1.20;;;;;;;;;;5064094;28;20281;-89
2022/12/21 09:50:50;;;;;;;1.50;1.40;;;;;;;;;;5054489;28;20204;-90
2022/12/21 09:53:22;;;;;;;1.05;1.05;;;;;;;;;;5060173;28;20268;-91
2022/12/21 09:55:54;;;;;;;1.17;1.17;;;;;;;;;;5067177;28;20256;-92
2022/12/21 09:58:28;;;;;;;1.55;1.45;;;;;;;;;;5072958;28;20197;-90
2022/12/21 10:01:03;;;;;;;1.27;1.17;;;;;;;;;;5071375;28;20324;-91
2022/12/21 10:03:46;;;;;;;1.50;1.40;;;;;;;;;;5056639;28;20224;-91
2022/12/21 10:06:31;;;;;;;1.35;1.35;;;;;;;;;;5058413;28;20275;-91
2022/12/21 10:09:26;;;;;;;1.08;1.00;;;;;;;;;;5071233;28;20193;-91
2022/12/21 10:12:06;;;;;;;1.50;1.40;;;;;;;;;;5062474;28;20670;-92
2022/12/21 10:14:44;;;;;;;1.13;1.10;;;;;;;;;;5053311;28;20217;-91
2022/12/21 10:17:31;;;;;;;1.23;1.13;;;;;;;;;;5057774;28;20630;-91
2022/12/21 10:20:10;;;;;;;1.10;1.10;;;;;;;;;;5060515;28;20221;-92
2022/12/21 10:22:40;;;;;;;0.90;0.90;;;;;;;;;;5053127;28;20235;-92
2022/12/21 10:25:17;;;;;;;0.90;0.90;;;;;;;;;;5053481;28;20277;-91
2022/12/21 10:27:50;;;;;;;0.90;0.90;;;;;;;;;;5058944;28;20635;-90
2022/12/21 10:30:19;;;;;;;1.17;1.08;;;;;;;;;;5067098;28;20195;-91
2022/12/21 10:32:49;;;;;;;1.13;1.10;;;;;;;;;;5072607;28;20284;-91
2022/12/21 10:35:22;;;;;;;1.30;1.20;;;;;;;;;;5072981;28;20279;-91
2022/12/21 10:37:52;;;;;;;1.30;1.20;;;;;;;;;;5070610;28;20211;-89
2022/12/21 10:40:20;;;;;;;1.15;1.15;;;;;;;;;;5052837;28;20309;-85
2022/12/21 10:42:50;;;;;;;0.90;0.90;;;;;;;;;;5072332;28;20203;-89
2022/12/21 10:45:20;;;;;;;0.90;0.90;;;;;;;;;;5072975;28;20213;-90
2022/12/21 10:47:49;;;;;;;0.90;0.90;;;;;;;;;;5073365;28;20212;-89
2022/12/21 10:50:19;;;;;;;0.90;0.90;;;;;;;;;;5072637;28;20213;-90
2022/12/21 10:52:49;;;;;;;1.10;1.10;;;;;;;;;;5072954;28;20272;-90
2022/12/21 10:55:33;;;;;;;0.80;0.80;;;;;;;;;;5052831;28;20233;-88
2022/12/21 10:58:17;;;;;;;0.70;0.70;;;;;;;;;;5052723;28;20201;-91
2022/12/21 11:00:56;;;;;;;0.95;0.95;;;;;;;;;;5070060;28;20626;-89
2022/12/21 11:03:30;;;;;;;0.60;0.60;;;;;;;;;;5072178;28;20287;-92
2022/12/21 11:05:58;;;;;;;1.13;1.13;;;;;;;;;;5072596;28;20221;-91
2022/12/21 11:08:31;;;;;;;1.38;0.60;;;;;;;;;;5072297;28;20228;-91
2022/12/21 11:11:01;;;;;;;0.55;0.55;;;;;;;;;;5067863;28;20293;-90
2022/12/21 11:13:30;;;;;;;0.40;0.40;;;;;;;;;;5060467;28;20205;-91
2022/12/21 11:16:03;;;;;;;0.43;0.43;;;;;;;;;;5072235;28;20631;-87
2022/12/21 11:18:53;;;;;;;0.60;0.60;;;;;;;;;;5071521;28;20276;-87
2022/12/21 11:21:33;;;;;;;0.50;0.50;;;;;;;;;;5066197;28;20225;-90
2022/12/21 11:24:05;;;;;;;0.40;0.40;;;;;;;;;;5072293;28;20251;-91
2022/12/21 11:26:38;;;;;;;0.52;0.52;;;;;;;;;;5072690;28;20221;-89
2022/12/21 11:29:07;;;;;;;0.45;0.45;;;;;;;;;;5072616;28;20258;-90
2022/12/21 11:31:37;;;;;;;0.45;0.45;;;;;;;;;;5072653;28;20311;-91
2022/12/21 11:34:09;;;;;;;1.65;0.60;;;;;;;;;;5053241;28;20217;-91
2022/12/21 11:36:56;;;;;;;0.75;0.75;;;;;;;;;;5051877;28;20281;-92
2022/12/21 11:39:24;;;;;;;0.65;0.65;;;;;;;;;;5052892;28;20268;-91
2022/12/21 11:41:53;;;;;;;0.70;0.70;;;;;;;;;;5064464;28;20239;-89
2022/12/21 11:44:25;;;;;;;0.77;0.77;;;;;;;;;;5072919;28;20259;-92
2022/12/21 11:47:08;;;;;;;0.70;0.70;;;;;;;;;;5072795;28;20652;-90
2022/12/21 11:50:23;;;;;;;1.00;1.00;;;;;;;;;;5060632;28;20197;-88
2022/12/21 11:53:17;;;;;;;1.27;0.98;;;;;;;;;;5065872;28;20223;-91
2022/12/21 11:56:06;;;;;;;1.27;1.17;;;;;;;;;;5072881;28;20239;-91
2022/12/21 11:58:53;;;;;;;1.50;1.40;;;;;;;;;;5072970;28;20657;-90
2022/12/21 12:01:32;;;;;;;1.77;1.67;;;;;;;;;;5072340;28;20227;-89
2022/12/21 12:04:17;;;;;;;1.45;1.35;;;;;;;;;;5072011;28;20312;-90
2022/12/21 12:07:23;;;;;;;2.03;1.90;;;;;;;;;;5072266;28;20220;-87
2022/12/21 12:10:18;;;;;;;1.73;1.63;;;;;;;;;;5071981;28;20207;-89
2022/12/21 12:12:54;;;;;;;1.98;1.88;;;;;;;;;;5057747;28;20209;-89
2022/12/21 12:15:34;;;;;;;1.35;1.30;;;;;;;;;;5071943;28;20240;-90
2022/12/21 12:18:18;;;;;;;1.90;1.35;;;;;;;;;;5071384;28;20665;-90
2022/12/21 12:21:49;;;;;;;1.45;1.35;;;;;;;;;;5071674;28;20307;-90
2022/12/21 12:24:39;;;;;;;1.42;1.33;;;;;;;;;;5051513;28;20316;-89
2022/12/21 12:27:18;;;;;;;1.40;1.30;;;;;;;;;;5058741;28;20577;-89
2022/12/21 12:30:03;;;;;;;1.58;1.48;;;;;;;;;;5072505;28;20201;-89
2022/12/21 12:33:00;;;;;;;1.23;1.23;;;;;;;;;;5075292;28;20208;-89
2022/12/21 12:36:00;;;;;;;1.20;1.10;;;;;;;;;;5055452;28;20732;-88
2022/12/21 12:38:38;;;;;;;1.13;1.13;;;;;;;;;;5055595;28;20221;-88
2022/12/21 12:41:23;;;;;;;2.03;1.77;;;;;;;;;;5060578;28;20298;-88
2022/12/21 12:43:57;;;;;;;1.80;1.70;;;;;;;;;;5074838;28;20200;-87
2022/12/21 12:47:05;;;;;;;1.75;1.65;;;;;;;;;;5075025;28;20272;-87
2022/12/21 12:50:02;;;;;;;1.98;1.85;;;;;;;;;;5042986;28;20591;-87
2022/12/21 12:52:50;;;;;;;2.33;2.20;;;;;;;;;;5051837;28;20202;-88
2022/12/21 12:55:24;;;;;;;2.80;2.00;;;;;;;;;;5074581;28;20217;-88
2022/12/21 12:58:03;;;;;;;2.03;1.92;;;;;;;;;;5075065;28;20229;-87
2022/12/21 13:00:39;;;;;;;2.00;1.90;;;;;;;;;;5074813;28;20289;-88
2022/12/21 13:03:16;;;;;;;1.90;1.80;;;;;;;;;;5074735;28;20288;-86
2022/12/21 13:05:51;;;;;;;1.67;1.58;;;;;;;;;;5063081;28;20304;-89
2022/12/21 13:08:33;;;;;;;1.70;1.60;;;;;;;;;;5073536;28;20201;-88
2022/12/21 13:11:07;;;;;;;1.75;1.65;;;;;;;;;;5074718;28;20212;-88
2022/12/21 13:13:45;;;;;;;1.58;1.48;;;;;;;;;;5075079;28;20199;-89
2022/12/21 13:16:18;;;;;;;2.35;1.90;;;;;;;;;;5067769;28;20282;-89
2022/12/21 13:18:50;;;;;;;2.78;1.70;;;;;;;;;;5057169;28;20205;-88
2022/12/21 13:21:21;;;;;;;1.70;1.60;;;;;;;;;;5074716;28;20221;-89
2022/12/21 13:23:51;;;;;;;1.77;1.67;;;;;;;;;;5074655;28;20268;-89
2022/12/21 13:26:24;;;;;;;1.60;1.50;;;;;;;;;;5074229;28;20199;-89
2022/12/21 13:28:58;;;;;;;2.30;2.10;;;;;;;;;;5074101;28;20665;-88
2022/12/21 13:31:30;;;;;;;1.50;1.40;;;;;;;;;;5074478;28;20283;-90
2022/12/21 13:34:03;;;;;;;1.50;1.40;;;;;;;;;;5074265;28;20700;-89
2022/12/21 13:36:36;;;;;;;1.23;1.23;;;;;;;;;;5074104;28;20295;-90
2022/12/21 13:39:08;;;;;;;1.83;1.73;;;;;;;;;;5074377;28;20279;-89
2022/12/21 13:41:40;;;;;;;1.70;1.60;;;;;;;;;;5073683;28;20232;-89
2022/12/21 13:44:25;;;;;;;1.60;1.50;;;;;;;;;;5073864;28;20304;-85
2022/12/21 13:46:54;;;;;;;1.50;1.40;;;;;;;;;;5071525;28;20748;-84
2022/12/21 13:49:35;;;;;;;1.70;1.60;;;;;;;;;;5057248;28;20291;-84
2022/12/21 13:52:11;;;;;;;2.00;1.90;;;;;;;;;;5062978;28;20190;-85
2022/12/21 13:54:51;;;;;;;1.20;1.20;;;;;;;;;;5061510;28;20216;-85
2022/12/21 13:57:26;;;;;;;1.33;1.23;;;;;;;;;;5066846;28;20677;-85
2022/12/21 14:00:03;;;;;;;1.48;1.38;;;;;;;;;;5073865;28;20219;-84
2022/12/21 14:02:51;;;;;;;1.88;1.75;;;;;;;;;;5073763;28;20702;-84
2022/12/21 14:05:22;;;;;;;1.73;1.63;;;;;;;;;;5073444;28;20232;-85
2022/12/21 14:08:31;;;;;;;1.40;1.30;;;;;;;;;;5074325;28;20279;-84
2022/12/21 14:11:22;;;;;;;2.08;1.60;;;;;;;;;;5064830;28;20581;-84
2022/12/21 14:14:08;;;;;;;1.30;1.20;;;;;;;;;;5064924;28;20581;-83
2022/12/21 14:16:38;;;;;;;1.42;1.30;;;;;;;;;;5063858;28;20286;-84
2022/12/21 14:19:16;;;;;;;1.40;1.30;;;;;;;;;;5060587;28;20212;-84
2022/12/21 14:21:47;;;;;;;1.77;1.67;;;;;;;;;;5067066;28;20247;-85
2022/12/21 14:24:21;;;;;;;1.05;1.05;;;;;;;;;;5060904;28;20609;-83
2022/12/21 14:26:54;;;;;;;2.22;2.05;;;;;;;;;;5059537;28;20204;-83
2022/12/21 14:29:30;;;;;;;1.65;1.55;;;;;;;;;;5063235;28;20686;-85
2022/12/21 14:32:03;;;;;;;1.50;1.40;;;;;;;;;;5057968;28;20200;-84
2022/12/21 14:34:38;;;;;;;1.48;1.38;;;;;;;;;;5068453;28;20829;-84
2022/12/21 14:37:30;;;;;;;1.42;1.33;;;;;;;;;;5070874;28;20226;-82
2022/12/21 14:40:24;;;;;;;1.60;1.50;;;;;;;;;;5072683;28;20191;-83
2022/12/21 14:43:03;;;;;;;1.88;1.25;;;;;;;;;;5070568;28;20220;-83
2022/12/21 14:45:54;;;;;;;1.30;1.20;;;;;;;;;;5055574;28;20229;-83
2022/12/21 14:49:05;;;;;;;1.15;1.15;;;;;;;;;;5062668;28;20189;-82
2022/12/21 14:51:59;;;;;;;9.80;8.13;;;;;;;;;;5063672;28;20200;-82
2022/12/21 14:54:35;;;;;;;4.25;3.33;;;;;;;;;;5058594;28;20304;-82
2022/12/21 14:57:24;;;;;;;2.47;2.20;;;;;;;;;;5060801;28;20197;-81
2022/12/21 15:00:22;;;;;;;1.33;1.23;;;;;;;;;;5051992;28;20194;-82
2022/12/21 15:02:53;;;;;;;1.40;1.30;;;;;;;;;;5036906;28;20221;-81
2022/12/21 15:05:31;;;;;;;2.17;1.70;;;;;;;;;;5064939;28;20701;-89
2022/12/21 15:08:08;;;;;;;1.23;1.23;;;;;;;;;;5059867;28;20201;-85
2022/12/21 15:10:50;;;;;;;1.13;1.13;;;;;;;;;;5057264;28;20284;-85
2022/12/21 15:13:23;;;;;;;1.08;1.08;;;;;;;;;;5071737;28;20268;-83
2022/12/21 15:16:07;;;;;;;0.88;0.88;;;;;;;;;;5063119;28;20222;-84
2022/12/21 15:19:01;;;;;;;1.10;1.00;;;;;;;;;;5060217;28;20190;-83
2022/12/21 15:21:36;;;;;;;1.02;1.02;;;;;;;;;;5053244;28;20201;-82
2022/12/21 15:24:13;;;;;;;1.02;1.02;;;;;;;;;;5061218;28;20231;-82
2022/12/21 15:26:47;;;;;;;0.90;0.90;;;;;;;;;;5072062;28;20200;-83
2022/12/21 15:29:20;;;;;;;1.40;1.30;;;;;;;;;;5065628;28;20200;-83
2022/12/21 15:31:51;;;;;;;1.40;1.30;;;;;;;;;;5057064;28;20324;-82
2022/12/21 15:34:22;;;;;;;1.45;1.45;;;;;;;;;;5058012;28;20308;-83
2022/12/21 15:36:59;;;;;;;1.30;1.20;;;;;;;;;;5062187;28;20201;-83